createdAt,value
2022-10-15T00:00:23.324Z,1000.3
2022-10-15T00:01:23.619Z,1000.3
2022-10-15T00:02:23.343Z,1000.2
2022-10-15T00:03:23.346Z,1000.2
2022-10-15T00:04:23.366Z,1000.3
2022-10-15T00:05:23.368Z,1000.2
2022-10-15T00:06:23.382Z,1000.2
2022-10-15T00:07:24.041Z,1000.2
2022-10-15T00:08:23.409Z,1000.2
2022-10-15T00:09:23.422Z,1000.2
2022-10-15T00:10:23.437Z,1000.2
2022-10-15T00:11:23.469Z,1000.2
2022-10-15T00:12:23.464Z,1000.2
2022-10-15T00:13:23.477Z,1000.2
2022-10-15T00:14:23.490Z,1000.2
2022-10-15T00:15:23.486Z,1000.2
2022-10-15T00:16:23.505Z,1000.2
2022-10-15T00:17:24.121Z,1000.2
2022-10-15T00:18:23.527Z,1000.1
2022-10-15T00:19:23.530Z,1000.2
2022-10-15T00:20:23.531Z,1000.2
2022-10-15T00:21:23.541Z,1000.2
2022-10-15T00:22:24.278Z,1000.1
2022-10-15T00:23:23.562Z,1000.1
2022-10-15T00:24:23.578Z,1000.1
2022-10-15T00:25:23.582Z,1000.2
2022-10-15T00:26:23.592Z,1000.2
2022-10-15T00:27:23.601Z,1000.2
2022-10-15T00:28:23.699Z,1000.2
2022-10-15T00:29:23.629Z,1000.1
2022-10-15T00:30:23.637Z,1000.2
2022-10-15T00:31:23.649Z,1000.2
2022-10-15T00:32:24.524Z,1000.2
2022-10-15T00:33:23.660Z,1000.2
2022-10-15T00:34:23.665Z,1000.1
2022-10-15T00:35:23.671Z,1000.1
2022-10-15T00:36:23.689Z,1000.1
2022-10-15T00:37:23.693Z,1000.1
2022-10-15T00:38:23.709Z,1000.1
2022-10-15T00:39:23.720Z,1000.2
2022-10-15T00:40:23.737Z,1000.1
2022-10-15T00:41:23.745Z,1000.1
2022-10-15T00:42:24.399Z,1000.2
2022-10-15T00:43:23.772Z,1000.2
2022-10-15T00:44:23.776Z,1000.1
2022-10-15T00:45:23.792Z,1000.1
2022-10-15T01:03:24.347Z,1000.0
2022-10-15T01:04:24.000Z,1000.0
2022-10-15T01:05:24.008Z,1000.0
2022-10-15T01:06:24.020Z,1000.0
2022-10-15T01:07:24.027Z,1000.0
2022-10-15T01:08:24.041Z,1000.0
2022-10-15T01:09:24.049Z,1000.0
2022-10-15T01:10:24.056Z,1000.0
2022-10-15T01:11:24.072Z,1000.0
2022-10-15T01:12:24.782Z,999.9
2022-10-15T01:13:24.100Z,1000.0
2022-10-15T01:14:24.107Z,1000.0
2022-10-15T01:15:24.133Z,999.9
2022-10-15T01:16:24.122Z,1000.0
2022-10-15T01:17:24.667Z,999.9
2022-10-15T01:18:24.152Z,1000.0
2022-10-15T01:19:24.164Z,1000.0
2022-10-15T01:20:24.169Z,1000.0
2022-10-15T01:21:24.186Z,1000.0
2022-10-15T01:22:24.196Z,999.9
2022-10-15T01:23:26.140Z,999.9
2022-10-15T01:24:24.218Z,999.9
2022-10-15T01:25:24.243Z,999.9
2022-10-15T01:26:24.239Z,999.9
2022-10-15T01:27:25.070Z,999.9
2022-10-15T01:28:24.418Z,999.9
2022-10-15T01:29:24.269Z,999.8
2022-10-15T01:30:24.274Z,999.9
2022-10-15T01:31:24.296Z,999.9
2022-10-15T01:32:24.314Z,999.9
2022-10-15T01:33:24.316Z,999.9
2022-10-15T01:34:24.325Z,999.9
2022-10-15T01:35:24.335Z,1000.0
2022-10-15T01:36:24.354Z,1000.0
2022-10-15T01:37:25.260Z,1000.0
2022-10-15T01:38:24.360Z,1000.0
2022-10-15T01:39:24.374Z,999.9
2022-10-15T01:40:24.375Z,999.9
2022-10-15T01:41:24.383Z,999.9
2022-10-15T01:42:24.400Z,999.9
2022-10-15T01:43:24.443Z,1000.0
2022-10-15T01:44:24.415Z,999.9
2022-10-15T01:45:24.436Z,999.9
2022-10-15T01:46:24.460Z,999.9
2022-10-15T01:47:25.040Z,999.8
2022-10-15T01:48:24.469Z,999.8
2022-10-15T01:49:24.477Z,999.9
2022-10-15T01:50:24.487Z,999.9
2022-10-15T01:51:24.498Z,999.9
2022-10-15T01:52:24.614Z,999.8
2022-10-15T01:53:24.521Z,999.8
2022-10-15T01:54:24.535Z,999.8
2022-10-15T01:55:24.540Z,999.9
2022-10-15T01:56:24.560Z,999.9
2022-10-15T01:57:25.442Z,999.9
2022-10-15T01:58:24.591Z,999.9
2022-10-15T01:59:24.598Z,999.9
2022-10-15T02:00:24.607Z,999.9
2022-10-15T02:01:24.903Z,1000.0
2022-10-15T02:02:25.499Z,999.9
2022-10-15T02:03:24.646Z,999.9
2022-10-15T02:04:24.655Z,999.9
2022-10-15T02:05:24.671Z,999.9
2022-10-15T02:06:24.687Z,999.9
2022-10-15T02:07:24.700Z,999.9
2022-10-15T02:08:24.713Z,1000.0
2022-10-15T02:09:24.726Z,999.9
2022-10-15T02:10:24.727Z,999.9
2022-10-15T02:11:24.747Z,999.9
2022-10-15T02:12:25.614Z,999.9
2022-10-15T02:13:24.765Z,999.9
2022-10-15T02:14:24.770Z,999.9
2022-10-15T02:15:24.778Z,999.8
2022-10-15T02:16:24.787Z,999.9
2022-10-15T02:17:24.795Z,999.8
2022-10-15T02:18:24.815Z,999.9
2022-10-15T02:19:24.826Z,999.8
2022-10-15T02:20:24.829Z,999.8
2022-10-15T02:21:24.839Z,999.8
2022-10-15T02:22:25.691Z,999.9
2022-10-15T02:23:24.864Z,999.8
2022-10-15T02:24:24.878Z,999.9
2022-10-15T02:25:25.026Z,999.9
2022-10-15T02:26:24.908Z,999.9
2022-10-15T02:27:24.910Z,999.8
2022-10-15T02:28:25.029Z,999.7
2022-10-15T02:29:24.942Z,999.7
2022-10-15T02:30:24.950Z,999.7
2022-10-15T02:31:24.967Z,999.8
2022-10-15T02:32:25.826Z,999.8
2022-10-15T02:33:24.991Z,999.7
2022-10-15T02:34:24.995Z,999.7
2022-10-15T02:35:25.029Z,999.7
2022-10-15T02:36:25.015Z,999.7
2022-10-15T02:37:25.031Z,999.6
2022-10-15T02:38:25.048Z,999.6
2022-10-15T02:39:25.052Z,999.6
2022-10-15T02:40:25.071Z,999.7
2022-10-15T02:41:25.081Z,999.7
2022-10-15T02:42:25.998Z,999.6
2022-10-15T02:43:25.103Z,999.6
2022-10-15T02:44:25.124Z,999.6
2022-10-15T02:45:25.134Z,999.6
2022-10-15T02:46:25.138Z,999.7
2022-10-15T02:48:25.165Z,999.7
2022-10-15T02:49:25.171Z,999.6
2022-10-15T02:50:25.185Z,999.7
2022-10-15T02:51:25.220Z,999.7
2022-10-15T02:52:26.107Z,999.7
2022-10-15T02:53:25.220Z,999.6
2022-10-15T02:54:25.234Z,999.7
2022-10-15T02:55:25.239Z,999.7
2022-10-15T02:56:25.299Z,999.7
2022-10-15T02:57:26.087Z,999.7
2022-10-15T02:58:25.265Z,999.7
2022-10-15T02:59:25.269Z,999.7
2022-10-15T03:00:25.276Z,999.7
2022-10-15T03:01:25.395Z,999.7
2022-10-15T03:02:25.308Z,999.7
2022-10-15T03:03:25.455Z,999.7
2022-10-15T03:04:25.322Z,999.6
2022-10-15T03:05:25.552Z,999.6
2022-10-15T03:06:25.341Z,999.7
2022-10-15T03:07:26.148Z,999.7
2022-10-15T03:08:25.359Z,999.6
2022-10-15T03:09:25.373Z,999.7
2022-10-15T03:10:25.406Z,999.7
2022-10-15T03:11:25.399Z,999.7
2022-10-15T03:12:25.412Z,999.7
2022-10-15T03:13:25.424Z,999.7
2022-10-15T03:14:25.515Z,999.7
2022-10-15T03:15:25.436Z,999.7
2022-10-15T03:16:25.457Z,999.7
2022-10-15T03:17:26.364Z,999.7
2022-10-15T03:18:25.485Z,999.7
2022-10-15T03:19:25.487Z,999.8
2022-10-15T03:20:25.502Z,999.8
2022-10-15T03:21:25.515Z,999.8
2022-10-15T03:22:25.524Z,999.8
2022-10-15T03:23:25.667Z,999.7
2022-10-15T03:24:25.539Z,999.8
2022-10-15T03:25:25.545Z,999.7
2022-10-15T03:26:25.551Z,999.7
2022-10-15T03:27:26.264Z,999.7
2022-10-15T03:28:25.646Z,999.7
2022-10-15T03:29:25.583Z,999.7
2022-10-15T03:30:25.592Z,999.7
2022-10-15T03:31:25.605Z,999.7
2022-10-15T03:32:25.745Z,999.7
2022-10-15T03:33:25.620Z,999.7
2022-10-15T03:34:25.628Z,999.7
2022-10-15T03:35:25.642Z,999.7
2022-10-15T03:36:25.656Z,999.7
2022-10-15T03:37:26.207Z,999.7
2022-10-15T03:38:25.679Z,999.7
2022-10-15T03:39:25.687Z,999.6
2022-10-15T03:40:25.697Z,999.7
2022-10-15T03:41:25.712Z,999.8
2022-10-15T03:42:26.400Z,999.7
2022-10-15T03:43:25.744Z,999.7
2022-10-15T03:44:25.749Z,999.8
2022-10-15T03:45:25.773Z,999.8
2022-10-15T03:46:25.782Z,999.7
2022-10-15T03:47:25.786Z,999.7
2022-10-15T03:48:25.796Z,999.8
2022-10-15T03:49:25.797Z,999.7
2022-10-15T03:50:25.803Z,999.7
2022-10-15T03:51:31.371Z,999.7
2022-10-15T03:52:26.417Z,999.8
2022-10-15T03:53:25.842Z,999.8
2022-10-15T03:54:25.849Z,999.8
2022-10-15T03:55:25.853Z,999.8
2022-10-15T03:56:25.862Z,999.8
2022-10-15T03:57:25.877Z,999.8
2022-10-15T03:58:25.882Z,999.8
2022-10-15T03:59:25.889Z,999.8
2022-10-15T04:00:25.903Z,999.8
2022-10-15T04:01:26.092Z,999.8
2022-10-15T04:02:26.742Z,999.8
2022-10-15T04:03:25.946Z,999.9
2022-10-15T04:04:25.966Z,999.9
2022-10-15T04:05:25.976Z,999.9
2022-10-15T04:06:25.980Z,999.9
2022-10-15T04:07:26.002Z,1000.0
2022-10-15T04:08:26.001Z,999.9
2022-10-15T04:09:26.022Z,999.8
2022-10-15T04:10:26.037Z,999.8
2022-10-15T04:11:26.280Z,999.8
2022-10-15T04:12:26.965Z,999.9
2022-10-15T04:13:26.083Z,999.8
2022-10-15T04:14:26.092Z,999.8
2022-10-15T04:15:26.104Z,999.8
2022-10-15T04:16:26.112Z,999.8
2022-10-15T04:17:26.129Z,999.9
2022-10-15T04:18:26.134Z,999.9
2022-10-15T04:19:26.149Z,999.9
2022-10-15T04:20:26.145Z,1000.0
2022-10-15T04:21:26.168Z,999.9
2022-10-15T04:22:26.956Z,999.8
2022-10-15T04:23:26.190Z,999.8
2022-10-15T04:24:26.204Z,999.9
2022-10-15T04:25:26.210Z,999.9
2022-10-15T04:26:26.224Z,999.8
2022-10-15T04:27:26.228Z,999.9
2022-10-15T04:28:26.283Z,999.9
2022-10-15T04:29:26.253Z,999.8
2022-10-15T04:30:26.254Z,999.9
2022-10-15T04:31:26.266Z,999.9
2022-10-15T04:32:26.632Z,999.9
2022-10-15T04:33:26.291Z,999.8
2022-10-15T04:34:26.307Z,999.9
2022-10-15T04:35:26.317Z,999.9
2022-10-15T04:36:26.324Z,999.9
2022-10-15T04:37:26.594Z,999.9
2022-10-15T04:38:26.397Z,999.9
2022-10-15T04:39:26.374Z,999.9
2022-10-15T04:40:26.392Z,1000.0
2022-10-15T04:41:26.403Z,1000.0
2022-10-15T04:42:26.417Z,1000.0
2022-10-15T04:43:26.425Z,999.8
2022-10-15T04:44:26.434Z,999.9
2022-10-15T04:45:26.459Z,1000.0
2022-10-15T04:46:26.462Z,1000.0
2022-10-15T04:47:26.932Z,1000.0
2022-10-15T04:48:26.488Z,1000.0
2022-10-15T04:49:26.504Z,1000.1
2022-10-15T04:50:26.516Z,1000.1
2022-10-15T04:51:26.531Z,1000.1
2022-10-15T04:52:26.547Z,1000.1
2022-10-15T04:53:26.568Z,1000.1
2022-10-15T04:55:26.590Z,1000.1
2022-10-15T04:56:26.597Z,1000.0
2022-10-15T04:57:27.210Z,1000.2
2022-10-15T04:58:26.634Z,1000.1
2022-10-15T04:59:26.647Z,1000.1
2022-10-15T05:00:26.657Z,1000.1
2022-10-15T05:01:26.664Z,1000.1
2022-10-15T05:02:26.996Z,1000.2
2022-10-15T05:03:26.792Z,1000.1
2022-10-15T05:04:26.713Z,1000.1
2022-10-15T05:05:26.717Z,1000.1
2022-10-15T05:06:26.734Z,1000.1
2022-10-15T05:07:27.462Z,1000.1
2022-10-15T05:08:26.784Z,1000.1
2022-10-15T05:09:26.779Z,1000.1
2022-10-15T05:10:26.790Z,1000.2
2022-10-15T05:11:26.824Z,1000.1
2022-10-15T05:12:26.823Z,1000.1
2022-10-15T05:13:26.843Z,1000.0
2022-10-15T05:14:26.857Z,1000.1
2022-10-15T05:15:26.862Z,1000.1
2022-10-15T05:16:26.879Z,1000.1
2022-10-15T05:17:27.233Z,1000.1
2022-10-15T05:18:26.894Z,1000.1
2022-10-15T05:19:26.908Z,1000.2
2022-10-15T05:20:26.929Z,1000.2
2022-10-15T05:21:26.935Z,1000.2
2022-10-15T05:22:27.437Z,1000.2
2022-10-15T05:23:26.970Z,1000.2
2022-10-15T05:24:26.979Z,1000.2
2022-10-15T05:25:26.998Z,1000.2
2022-10-15T05:26:27.005Z,1000.3
2022-10-15T05:27:27.015Z,1000.2
2022-10-15T05:28:27.171Z,1000.3
2022-10-15T05:29:27.058Z,1000.3
2022-10-15T05:30:27.059Z,1000.3
2022-10-15T05:31:27.063Z,1000.3
2022-10-15T05:32:27.083Z,1000.3
2022-10-15T05:33:27.087Z,1000.3
2022-10-15T05:34:27.107Z,1000.3
2022-10-15T05:35:27.120Z,1000.3
2022-10-15T05:36:27.125Z,1000.3
2022-10-15T05:37:27.139Z,1000.3
2022-10-15T05:38:27.156Z,1000.3
2022-10-15T05:39:27.165Z,1000.3
2022-10-15T05:40:27.178Z,1000.3
2022-10-15T05:41:27.196Z,1000.3
2022-10-15T05:42:27.204Z,1000.4
2022-10-15T05:43:27.216Z,1000.3
2022-10-15T05:44:27.222Z,1000.4
2022-10-15T05:45:27.236Z,1000.4
2022-10-15T05:46:27.245Z,1000.4
2022-10-15T05:47:27.455Z,1000.4
2022-10-15T05:48:27.274Z,1000.4
2022-10-15T05:49:27.276Z,1000.4
2022-10-15T05:50:27.296Z,1000.5
2022-10-15T05:51:27.305Z,1000.4
2022-10-15T05:52:27.602Z,1000.4
2022-10-15T05:53:27.332Z,1000.4
2022-10-15T05:54:27.429Z,1000.4
2022-10-15T05:55:27.363Z,1000.4
2022-10-15T05:56:27.367Z,1000.5
2022-10-15T05:57:27.383Z,1000.4
2022-10-15T05:58:27.402Z,1000.4
2022-10-15T05:59:27.416Z,1000.4
2022-10-15T06:00:27.423Z,1000.5
2022-10-15T06:01:27.434Z,1000.5
2022-10-15T06:02:28.780Z,1000.5
2022-10-15T06:03:27.457Z,1000.5
2022-10-15T06:04:31.862Z,1000.5
2022-10-15T06:05:27.477Z,1000.5
2022-10-15T06:06:27.493Z,1000.5
2022-10-15T06:07:27.501Z,1000.5
2022-10-15T06:08:27.506Z,1000.5
2022-10-15T06:09:27.517Z,1000.6
2022-10-15T06:10:27.555Z,1000.6
2022-10-15T06:11:27.539Z,1000.5
2022-10-15T06:12:27.554Z,1000.5
2022-10-15T06:13:27.579Z,1000.5
2022-10-15T06:14:27.581Z,1000.5
2022-10-15T06:15:27.591Z,1000.5
2022-10-15T06:16:27.595Z,1000.6
2022-10-15T06:17:27.605Z,1000.5
2022-10-15T06:18:27.608Z,1000.5
2022-10-15T06:19:27.644Z,1000.5
2022-10-15T06:20:27.703Z,1000.5
2022-10-15T06:21:27.656Z,1000.5
2022-10-15T06:22:27.904Z,1000.5
2022-10-15T06:23:27.684Z,1000.6
2022-10-15T06:24:27.684Z,1000.6
2022-10-15T06:25:27.693Z,1000.5
2022-10-15T06:26:27.693Z,1000.5
2022-10-15T06:27:27.707Z,1000.5
2022-10-15T06:28:27.840Z,1000.5
2022-10-15T06:29:27.745Z,1000.5
2022-10-15T06:30:27.893Z,1000.5
2022-10-15T06:31:27.760Z,1000.6
2022-10-15T06:32:27.767Z,1000.6
2022-10-15T06:33:27.797Z,1000.6
2022-10-15T06:34:27.808Z,1000.7
2022-10-15T06:35:27.820Z,1000.7
2022-10-15T06:36:27.839Z,1000.7
2022-10-15T06:37:27.845Z,1000.7
2022-10-15T06:38:27.855Z,1000.7
2022-10-15T06:39:27.863Z,1000.7
2022-10-15T06:40:27.887Z,1000.7
2022-10-15T06:41:27.895Z,1000.7
2022-10-15T06:42:27.906Z,1000.7
2022-10-15T06:43:32.582Z,1000.8
2022-10-15T06:44:27.924Z,1000.8
2022-10-15T06:45:27.929Z,1000.7
2022-10-15T06:46:27.944Z,1000.7
2022-10-15T06:47:27.974Z,1000.8
2022-10-15T06:48:27.967Z,1000.7
2022-10-15T06:49:27.975Z,1000.8
2022-10-15T06:50:27.995Z,1000.8
2022-10-15T06:51:28.008Z,1000.7
2022-10-15T06:52:28.026Z,1000.7
2022-10-15T06:53:28.041Z,1000.7
2022-10-15T06:54:28.055Z,1000.7
2022-10-15T06:55:28.054Z,1000.7
2022-10-15T06:56:28.065Z,1000.7
2022-10-15T06:57:28.084Z,1000.7
2022-10-15T06:58:28.098Z,1000.8
2022-10-15T06:59:28.215Z,1000.8
2022-10-15T07:00:28.607Z,1000.7
2022-10-15T07:01:28.116Z,1000.8
2022-10-15T07:02:28.125Z,1000.7
2022-10-15T07:03:28.135Z,1000.7
2022-10-15T07:04:28.151Z,1000.8
2022-10-15T07:05:28.158Z,1000.7
2022-10-15T07:06:28.178Z,1000.7
2022-10-15T07:07:28.185Z,1000.7
2022-10-15T07:08:28.193Z,1000.8
2022-10-15T07:09:28.194Z,1000.7
2022-10-15T07:10:28.215Z,1000.7
2022-10-15T07:11:28.235Z,1000.7
2022-10-15T07:12:28.252Z,1000.7
2022-10-15T07:13:28.255Z,1000.9
2022-10-15T07:14:28.275Z,1000.7
2022-10-15T07:15:28.287Z,1000.8
2022-10-15T07:16:28.292Z,1000.8
2022-10-15T07:17:28.304Z,1000.8
2022-10-15T07:18:28.333Z,1000.8
2022-10-15T07:19:28.328Z,1000.8
2022-10-15T07:20:28.342Z,1000.9
2022-10-15T07:21:28.353Z,1000.9
2022-10-15T07:22:28.376Z,1000.9
2022-10-15T07:23:28.380Z,1000.9
2022-10-15T07:24:28.396Z,1000.9
2022-10-15T07:25:28.407Z,1000.9
2022-10-15T07:26:28.422Z,1000.9
2022-10-15T07:27:28.430Z,1000.9
2022-10-15T07:28:28.578Z,1000.9
2022-10-15T07:29:28.452Z,1000.9
2022-10-15T07:30:28.629Z,1000.9
2022-10-15T07:31:28.482Z,1000.9
2022-10-15T07:32:28.485Z,1001.0
2022-10-15T07:33:28.499Z,1001.0
2022-10-15T07:34:28.509Z,1000.9
2022-10-15T07:35:28.525Z,1001.0
2022-10-15T07:36:28.536Z,1001.0
2022-10-15T07:37:28.547Z,1000.9
2022-10-15T07:38:28.564Z,1000.9
2022-10-15T07:39:28.581Z,1000.9
2022-10-15T07:40:28.592Z,1001.0
2022-10-15T07:41:28.599Z,1000.9
2022-10-15T07:42:28.628Z,1001.0
2022-10-15T07:43:28.632Z,1000.9
2022-10-15T07:44:28.648Z,1000.9
2022-10-15T07:45:28.655Z,1001.0
2022-10-15T07:46:28.667Z,1001.0
2022-10-15T07:47:28.678Z,1001.0
2022-10-15T07:48:28.689Z,1001.0
2022-10-15T07:49:28.695Z,1001.0
2022-10-15T07:50:35.524Z,1001.0
2022-10-15T07:51:28.732Z,1001.0
2022-10-15T07:52:28.750Z,1000.9
2022-10-15T07:53:28.749Z,1001.0
2022-10-15T07:54:28.768Z,1001.0
2022-10-15T07:55:28.774Z,1001.0
2022-10-15T07:56:28.780Z,1000.9
2022-10-15T07:57:28.788Z,1001.0
2022-10-15T07:58:28.806Z,1001.0
2022-10-15T07:59:28.825Z,1001.0
2022-10-15T08:00:28.950Z,1000.9
2022-10-15T08:01:28.864Z,1001.0
2022-10-15T08:02:28.880Z,1001.0
2022-10-15T08:03:28.889Z,1000.9
2022-10-15T08:04:28.902Z,1001.0
2022-10-15T08:05:28.923Z,1001.0
2022-10-15T08:06:29.000Z,1001.0
2022-10-15T08:07:28.948Z,1001.0
2022-10-15T08:08:28.954Z,1000.9
2022-10-15T08:09:28.980Z,1000.9
2022-10-15T08:10:28.978Z,1000.9
2022-10-15T08:11:28.984Z,1000.9
2022-10-15T08:12:29.002Z,1000.9
2022-10-15T08:13:29.027Z,1000.9
2022-10-15T08:14:29.055Z,1001.0
2022-10-15T08:15:29.060Z,1001.0
2022-10-15T08:16:29.061Z,1000.8
2022-10-15T08:17:29.068Z,1000.9
2022-10-15T08:18:29.097Z,1000.8
2022-10-15T08:19:29.104Z,1000.9
2022-10-15T08:20:29.124Z,1000.8
2022-10-15T08:21:29.147Z,1001.0
2022-10-15T08:22:29.157Z,1001.0
2022-10-15T08:23:29.160Z,1000.9
2022-10-15T08:24:29.176Z,1001.0
2022-10-15T08:25:29.184Z,1001.0
2022-10-15T08:26:29.196Z,1001.0
2022-10-15T08:27:29.205Z,1001.0
2022-10-15T08:28:29.426Z,1001.0
2022-10-15T08:29:29.226Z,1001.0
2022-10-15T08:30:29.234Z,1001.0
2022-10-15T08:31:29.262Z,1001.0
2022-10-15T08:32:29.263Z,1001.0
2022-10-15T08:33:29.269Z,1001.1
2022-10-15T08:34:29.290Z,1001.0
2022-10-15T08:35:29.297Z,1001.0
2022-10-15T08:36:29.315Z,1001.0
2022-10-15T08:37:29.331Z,1001.0
2022-10-15T08:38:29.338Z,1000.9
2022-10-15T08:39:29.343Z,1001.0
2022-10-15T08:40:29.365Z,1001.0
2022-10-15T08:41:29.375Z,1001.0
2022-10-15T08:42:29.389Z,1001.0
2022-10-15T08:43:29.400Z,1001.0
2022-10-15T08:44:29.404Z,1001.0
2022-10-15T08:45:29.413Z,1001.0
2022-10-15T08:46:29.441Z,1001.1
2022-10-15T08:47:29.443Z,1001.0
2022-10-15T08:48:29.463Z,1001.0
2022-10-15T08:49:29.467Z,1001.1
2022-10-15T08:50:29.474Z,1001.1
2022-10-15T08:51:29.485Z,1001.0
2022-10-15T08:52:29.486Z,1001.0
2022-10-15T08:53:29.508Z,1001.0
2022-10-15T08:54:29.530Z,1001.0
2022-10-15T08:55:29.564Z,1001.0
2022-10-15T08:56:29.549Z,1001.1
2022-10-15T08:57:29.555Z,1001.1
2022-10-15T08:58:29.583Z,1001.0
2022-10-15T08:59:29.567Z,1001.1
2022-10-15T09:00:29.583Z,1001.2
2022-10-15T09:01:29.594Z,1001.1
2022-10-15T09:02:29.617Z,1001.1
2022-10-15T09:03:29.633Z,1001.2
2022-10-15T09:04:29.642Z,1001.2
2022-10-15T09:05:29.644Z,1001.1
2022-10-15T09:06:29.676Z,1001.1
2022-10-15T09:07:29.678Z,1001.1
2022-10-15T09:08:29.702Z,1001.1
2022-10-15T09:09:29.701Z,1001.1
2022-10-15T09:10:29.719Z,1001.2
2022-10-15T09:11:29.722Z,1001.1
2022-10-15T09:12:29.744Z,1001.1
2022-10-15T09:13:29.851Z,1001.1
2022-10-15T09:14:29.755Z,1001.1
2022-10-15T09:15:29.764Z,1001.0
2022-10-15T09:16:29.919Z,1001.2
2022-10-15T09:17:29.900Z,1001.1
2022-10-15T09:18:29.782Z,1001.2
2022-10-15T09:19:29.790Z,1001.2
2022-10-15T09:20:29.791Z,1001.2
2022-10-15T09:21:29.802Z,1001.2
2022-10-15T09:22:29.802Z,1001.2
2022-10-15T09:23:29.817Z,1001.2
2022-10-15T09:24:29.819Z,1001.3
2022-10-15T09:25:32.218Z,1001.2
2022-10-15T09:26:29.832Z,1001.2
2022-10-15T09:27:29.836Z,1001.2
2022-10-15T09:28:29.900Z,1001.2
2022-10-15T09:29:29.846Z,1001.2
2022-10-15T09:30:29.855Z,1001.1
2022-10-15T09:31:29.857Z,1001.2
2022-10-15T09:32:29.865Z,1001.2
2022-10-15T09:33:29.873Z,1001.2
2022-10-15T09:34:29.878Z,1001.2
2022-10-15T09:35:29.889Z,1001.2
2022-10-15T09:36:29.892Z,1001.2
2022-10-15T09:37:29.896Z,1001.2
2022-10-15T09:38:29.898Z,1001.2
2022-10-15T09:39:29.905Z,1001.2
2022-10-15T09:40:29.913Z,1001.1
2022-10-15T09:41:29.916Z,1001.1
2022-10-15T09:42:29.923Z,1001.1
2022-10-15T09:43:29.936Z,1001.2
2022-10-15T09:44:29.944Z,1001.1
2022-10-15T09:45:29.953Z,1001.1
2022-10-15T09:46:29.958Z,1001.0
2022-10-15T09:47:29.978Z,1001.0
2022-10-15T09:48:29.970Z,1001.0
2022-10-15T09:49:36.453Z,1001.1
2022-10-15T09:50:29.986Z,1001.0
2022-10-15T09:51:29.998Z,1001.1
2022-10-15T09:52:30.002Z,1001.1
2022-10-15T09:53:30.029Z,1001.1
2022-10-15T09:54:30.026Z,1001.1
2022-10-15T09:55:30.035Z,1001.1
2022-10-15T09:56:30.037Z,1001.1
2022-10-15T09:57:30.047Z,1001.0
2022-10-15T09:58:30.062Z,1001.2
2022-10-15T09:59:30.074Z,1001.1
2022-10-15T10:00:30.077Z,1001.2
2022-10-15T10:01:30.081Z,1001.1
2022-10-15T10:02:30.976Z,1001.0
2022-10-15T10:03:30.100Z,1001.2
2022-10-15T10:04:30.096Z,1001.2
2022-10-15T10:05:30.121Z,1001.1
2022-10-15T10:06:30.110Z,1001.2
2022-10-15T10:07:30.117Z,1001.1
2022-10-15T10:08:30.125Z,1001.2
2022-10-15T10:09:30.130Z,1001.2
2022-10-15T10:10:30.138Z,1001.2
2022-10-15T10:11:30.141Z,1001.1
2022-10-15T10:12:30.145Z,1001.1
2022-10-15T10:13:30.153Z,1001.2
2022-10-15T10:14:30.156Z,1001.1
2022-10-15T10:15:30.165Z,1001.1
2022-10-15T10:16:30.289Z,1001.0
2022-10-15T10:17:30.223Z,1001.0
2022-10-15T10:18:30.186Z,1000.9
2022-10-15T10:19:30.189Z,1001.1
2022-10-15T10:20:30.196Z,1001.0
2022-10-15T10:21:30.202Z,1001.1
2022-10-15T10:22:30.211Z,1001.1
2022-10-15T10:23:30.218Z,1001.1
2022-10-15T10:24:30.247Z,1001.0
2022-10-15T10:25:30.238Z,1001.1
2022-10-15T10:26:30.236Z,1001.0
2022-10-15T10:27:30.252Z,1001.0
2022-10-15T10:28:30.394Z,1001.1
2022-10-15T10:29:35.509Z,1001.0
2022-10-15T10:30:30.272Z,1001.0
2022-10-15T10:31:30.277Z,1001.0
2022-10-15T10:32:30.281Z,1001.0
2022-10-15T10:33:30.301Z,1001.0
2022-10-15T10:34:30.295Z,1001.0
2022-10-15T10:35:30.300Z,1001.0
2022-10-15T10:36:30.309Z,1001.1
2022-10-15T10:37:30.309Z,1001.0
2022-10-15T10:38:30.316Z,1001.1
2022-10-15T10:39:30.324Z,1001.0
2022-10-15T10:40:30.327Z,1001.0
2022-10-15T10:41:30.333Z,1001.0
2022-10-15T10:42:30.339Z,1001.0
2022-10-15T10:43:30.349Z,1000.9
2022-10-15T10:44:30.357Z,1001.0
2022-10-15T10:45:30.374Z,1001.0
2022-10-15T10:46:30.363Z,1000.9
2022-10-15T10:47:30.374Z,1000.9
2022-10-15T10:48:30.379Z,1000.9
2022-10-15T10:49:30.382Z,1001.0
2022-10-15T10:50:30.407Z,1000.9
2022-10-15T10:51:30.398Z,1000.9
2022-10-15T10:52:30.404Z,1001.0
2022-10-15T10:53:30.411Z,1001.0
2022-10-15T10:54:30.542Z,1000.9
2022-10-15T10:55:30.423Z,1001.0
2022-10-15T10:56:30.428Z,1000.9
2022-10-15T10:57:30.433Z,1001.0
2022-10-15T10:58:30.460Z,1001.0
2022-10-15T10:59:30.443Z,1000.9
2022-10-15T11:00:30.449Z,1000.9
2022-10-15T11:01:30.460Z,1000.9
2022-10-15T11:02:30.461Z,1000.9
2022-10-15T11:03:30.467Z,1000.9
2022-10-15T11:04:30.471Z,1000.8
2022-10-15T11:05:30.487Z,1000.8
2022-10-15T11:06:30.488Z,1000.9
2022-10-15T11:07:30.492Z,1000.9
2022-10-15T11:08:30.496Z,1000.9
2022-10-15T11:09:30.504Z,1000.9
2022-10-15T11:10:30.510Z,1000.9
2022-10-15T11:11:30.521Z,1000.8
2022-10-15T11:12:30.523Z,1000.8
2022-10-15T11:13:31.624Z,1000.9
2022-10-15T11:14:30.536Z,1000.8
2022-10-15T11:15:30.546Z,1000.9
2022-10-15T11:16:30.547Z,1000.9
2022-10-15T11:17:30.553Z,1000.9
2022-10-15T11:18:30.562Z,1000.9
2022-10-15T11:21:30.576Z,1000.8
2022-10-15T11:22:30.587Z,1000.8
2022-10-15T11:23:30.602Z,1000.9
2022-10-15T11:24:48.234Z,1000.8
2022-10-15T11:25:30.606Z,1000.9
2022-10-15T11:26:41.589Z,1000.9
2022-10-15T11:27:30.618Z,1000.9
2022-10-15T11:28:30.686Z,1000.8
2022-10-15T11:29:30.640Z,1000.8
2022-10-15T11:30:30.641Z,1000.8
2022-10-15T11:31:37.228Z,1000.8
2022-10-15T11:32:54.926Z,1000.9
2022-10-15T11:33:30.675Z,1000.8
2022-10-15T11:34:30.678Z,1000.8
2022-10-15T11:35:52.741Z,1000.8
2022-10-15T11:36:30.684Z,1000.8
2022-10-15T11:37:30.691Z,1000.7
2022-10-15T11:38:30.696Z,1000.7
2022-10-15T11:39:30.708Z,1000.8
2022-10-15T11:41:30.719Z,1000.7
2022-10-15T11:42:30.728Z,1000.8
2022-10-15T11:43:30.735Z,1000.9
2022-10-15T11:44:30.736Z,1000.8
2022-10-15T11:45:30.747Z,1000.8
2022-10-15T11:46:30.751Z,1000.8
2022-10-15T11:47:30.762Z,1000.8
2022-10-15T11:48:30.890Z,1000.8
2022-10-15T11:49:30.868Z,1000.7
2022-10-15T11:50:30.771Z,1000.7
2022-10-15T11:51:30.781Z,1000.8
2022-10-15T11:52:30.782Z,1000.7
2022-10-15T11:53:30.790Z,1000.7
2022-10-15T11:54:30.795Z,1000.8
2022-10-15T11:55:30.805Z,1000.8
2022-10-15T11:56:36.522Z,1000.7
2022-10-15T11:57:30.812Z,1000.7
2022-10-15T11:58:30.822Z,1000.7
2022-10-15T11:59:30.833Z,1000.7
2022-10-15T12:00:30.856Z,1000.7
2022-10-15T12:01:30.839Z,1000.7
2022-10-15T12:02:30.843Z,1000.6
2022-10-15T12:03:30.863Z,1000.7
2022-10-15T12:04:32.969Z,1000.7
2022-10-15T12:05:30.861Z,1000.7
2022-10-15T12:06:30.874Z,1000.7
2022-10-15T12:07:30.884Z,1000.6
2022-10-15T12:08:30.881Z,1000.6
2022-10-15T12:09:30.886Z,1000.6
2022-10-15T12:10:30.908Z,1000.6
2022-10-15T12:11:30.915Z,1000.6
2022-10-15T12:12:30.902Z,1000.6
2022-10-15T12:13:30.910Z,1000.6
2022-10-15T12:14:30.927Z,1000.6
2022-10-15T12:15:30.928Z,1000.6
2022-10-15T12:16:30.933Z,1000.6
2022-10-15T12:17:30.949Z,1000.5
2022-10-15T12:18:30.961Z,1000.6
2022-10-15T12:19:30.956Z,1000.6
2022-10-15T12:20:30.963Z,1000.5
2022-10-15T12:21:30.961Z,1000.5
2022-10-15T12:22:34.372Z,1000.5
2022-10-15T12:23:30.977Z,1000.4
2022-10-15T12:24:31.054Z,1000.5
2022-10-15T12:25:30.993Z,1000.4
2022-10-15T12:26:31.001Z,1000.4
2022-10-15T12:27:31.002Z,1000.4
2022-10-15T12:28:31.162Z,1000.4
2022-10-15T12:29:31.130Z,1000.3
2022-10-15T12:30:31.028Z,1000.3
2022-10-15T12:31:38.314Z,1000.3
2022-10-15T12:32:31.041Z,1000.3
2022-10-15T12:33:31.043Z,1000.3
2022-10-15T12:34:31.049Z,1000.2
2022-10-15T12:35:31.059Z,1000.3
2022-10-15T12:36:31.073Z,1000.2
2022-10-15T12:37:31.071Z,1000.1
2022-10-15T12:38:31.081Z,1000.1
2022-10-15T12:39:51.557Z,1000.2
2022-10-15T12:40:31.099Z,1000.2
2022-10-15T12:41:31.094Z,1000.2
2022-10-15T12:42:31.107Z,1000.2
2022-10-15T12:43:31.107Z,1000.2
2022-10-15T12:44:31.127Z,1000.1
2022-10-15T12:45:35.687Z,1000.2
2022-10-15T12:46:31.130Z,1000.2
2022-10-15T12:47:31.133Z,1000.2
2022-10-15T12:48:31.146Z,1000.1
2022-10-15T12:49:31.145Z,1000.2
2022-10-15T12:50:31.159Z,1000.2
2022-10-15T12:51:31.154Z,1000.2
2022-10-15T12:52:31.161Z,1000.1
2022-10-15T12:53:31.266Z,1000.1
2022-10-15T12:54:31.176Z,1000.1
2022-10-15T12:55:31.178Z,1000.1
2022-10-15T12:56:31.186Z,1000.0